createdAt,value
2022-12-11T00:00:49.938Z,30.74
2022-12-11T00:03:17.741Z,31.21
2022-12-11T00:05:45.209Z,30.69
2022-12-11T00:08:12.967Z,31.35
2022-12-11T00:10:40.068Z,32.22
2022-12-11T00:13:07.025Z,31.56
2022-12-11T00:15:34.079Z,30.21
2022-12-11T00:18:01.157Z,30.19
2022-12-11T00:20:29.250Z,30.18
2022-12-11T00:22:56.521Z,30.75
2022-12-11T00:25:25.802Z,30.39
2022-12-11T00:27:52.866Z,31.02
2022-12-11T00:30:19.923Z,31.26
2022-12-11T00:32:46.964Z,30.96
2022-12-11T00:35:14.066Z,30.79
2022-12-11T00:37:41.196Z,31.37
2022-12-11T00:40:08.672Z,31.37
2022-12-11T00:42:35.654Z,30.54
2022-12-11T00:45:03.141Z,30.76
2022-12-11T00:47:30.336Z,30.87
2022-12-11T00:49:57.467Z,30.91
2022-12-11T00:52:25.014Z,30.72
2022-12-11T00:54:51.979Z,30.95
2022-12-11T00:57:19.010Z,31.16
2022-12-11T00:59:46.026Z,31.59
2022-12-11T01:02:13.103Z,31.15
2022-12-11T01:04:41.309Z,31.53
2022-12-11T01:07:08.352Z,31.71
2022-12-11T01:09:54.545Z,31.23
2022-12-11T01:12:21.620Z,31.39
2022-12-11T01:14:48.557Z,31.49
2022-12-11T01:17:15.875Z,31.31
2022-12-11T01:19:42.883Z,31.08
2022-12-11T01:22:09.977Z,31.45
2022-12-11T01:24:38.370Z,31.46
2022-12-11T01:27:05.483Z,31.44
2022-12-11T01:29:32.934Z,31.62
2022-12-11T01:31:59.997Z,31.68
2022-12-11T01:34:29.356Z,32.18
2022-12-11T01:36:56.769Z,31.67
2022-12-11T01:39:23.979Z,32.07
2022-12-11T01:41:51.118Z,31.73
2022-12-11T01:44:18.103Z,31.87
2022-12-11T01:46:45.198Z,31.41
2022-12-11T01:49:13.938Z,31.61
2022-12-11T01:51:46.563Z,31.70
2022-12-11T01:54:15.566Z,31.43
2022-12-11T01:56:44.252Z,31.18
2022-12-11T02:01:48.943Z,31.39
2022-12-11T02:04:18.182Z,31.63
2022-12-11T02:06:47.367Z,31.82
2022-12-11T02:09:17.141Z,31.55
2022-12-11T02:11:54.011Z,31.84
2022-12-11T02:14:41.270Z,31.72
2022-12-11T02:17:16.711Z,32.09
2022-12-11T02:20:03.686Z,32.13
2022-12-11T02:22:49.325Z,32.58
2022-12-11T02:25:31.709Z,32.57
2022-12-11T02:28:17.492Z,32.91
2022-12-11T02:30:49.495Z,33.19
2022-12-11T02:33:16.835Z,33.30
2022-12-11T02:35:46.106Z,33.93
2022-12-11T02:38:25.462Z,33.72
2022-12-11T02:40:54.448Z,33.49
2022-12-11T02:43:23.784Z,33.77
2022-12-11T02:45:51.443Z,33.82
2022-12-11T02:48:20.232Z,33.85
2022-12-11T02:50:53.042Z,34.03
2022-12-11T02:53:22.040Z,34.03
2022-12-11T02:55:54.642Z,33.77
2022-12-11T02:58:27.217Z,34.18
2022-12-11T03:00:55.363Z,34.36
2022-12-11T03:03:22.710Z,34.12
2022-12-11T03:05:49.869Z,33.86
2022-12-11T03:08:18.976Z,33.84
2022-12-11T03:10:46.374Z,33.80
2022-12-11T03:13:15.004Z,34.12
2022-12-11T03:15:49.122Z,34.26
2022-12-11T03:18:19.379Z,33.50
2022-12-11T03:20:46.582Z,33.44
2022-12-11T03:23:25.579Z,33.61
2022-12-11T03:25:55.112Z,33.94
2022-12-11T03:28:39.747Z,33.80
2022-12-11T03:31:09.960Z,33.92
2022-12-11T03:33:39.886Z,34.02
2022-12-11T03:36:10.138Z,33.98
2022-12-11T03:38:44.456Z,34.19
2022-12-11T03:41:13.523Z,34.14
2022-12-11T03:43:40.894Z,33.87
2022-12-11T03:46:09.768Z,33.74
2022-12-11T03:48:38.775Z,33.78
2022-12-11T03:51:07.269Z,34.57
2022-12-11T03:53:34.889Z,34.14
2022-12-11T03:56:03.196Z,34.35
2022-12-11T03:58:30.419Z,34.45
2022-12-11T04:00:57.562Z,34.68
2022-12-11T04:03:27.066Z,34.88
2022-12-11T04:05:57.832Z,34.48
2022-12-11T04:08:28.213Z,34.83
2022-12-11T04:11:13.830Z,34.56
2022-12-11T04:13:41.596Z,35.27
2022-12-11T04:16:09.055Z,34.90
2022-12-11T04:18:57.401Z,35.50
2022-12-11T04:21:42.878Z,34.80
2022-12-11T04:24:15.866Z,34.89
2022-12-11T04:26:46.811Z,34.81
2022-12-11T04:29:14.484Z,35.36
2022-12-11T04:31:41.836Z,35.37
2022-12-11T04:34:09.138Z,35.21
2022-12-11T04:36:36.363Z,35.33
2022-12-11T04:39:04.218Z,35.15
2022-12-11T04:41:31.334Z,35.30
2022-12-11T04:44:00.793Z,35.45
2022-12-11T04:46:30.834Z,35.70
2022-12-11T04:48:58.209Z,35.21
2022-12-11T04:51:25.428Z,35.55
2022-12-11T04:53:52.756Z,35.77
2022-12-11T04:56:22.218Z,35.74
2022-12-11T04:58:49.332Z,35.49
2022-12-11T05:01:17.524Z,35.26
2022-12-11T05:03:44.907Z,35.30
2022-12-11T05:06:12.244Z,35.16
2022-12-11T05:08:40.582Z,35.66
2022-12-11T05:11:09.977Z,35.26
2022-12-11T05:13:37.307Z,35.55
2022-12-11T05:16:05.375Z,35.61
2022-12-11T05:18:32.321Z,36.21
2022-12-11T05:21:02.371Z,35.68
2022-12-11T05:23:29.365Z,35.43
2022-12-11T05:25:57.381Z,35.90
2022-12-11T05:28:25.317Z,36.55
2022-12-11T05:30:56.195Z,36.54
2022-12-11T05:33:23.431Z,36.42
2022-12-11T05:35:50.406Z,36.55
2022-12-11T05:38:17.850Z,36.68
2022-12-11T05:40:45.265Z,36.57
2022-12-11T05:43:15.249Z,36.72
2022-12-11T05:45:42.385Z,37.10
2022-12-11T05:48:09.409Z,36.84
2022-12-11T05:50:36.424Z,37.25
2022-12-11T05:53:07.607Z,37.33
2022-12-11T05:55:35.512Z,37.19
2022-12-11T05:58:02.435Z,37.32
2022-12-11T06:00:34.462Z,37.34
2022-12-11T06:03:03.392Z,37.74
2022-12-11T06:05:30.387Z,37.82
2022-12-11T06:07:57.485Z,37.63
2022-12-11T06:10:24.538Z,37.74
2022-12-11T06:12:51.544Z,36.98
2022-12-11T06:15:18.612Z,37.66
2022-12-11T06:17:45.793Z,37.83
2022-12-11T06:20:12.754Z,38.23
2022-12-11T06:22:42.689Z,38.08
2022-12-11T06:25:10.237Z,37.81
2022-12-11T06:27:37.506Z,37.78
2022-12-11T06:30:04.749Z,38.15
2022-12-11T06:32:34.567Z,38.00
2022-12-11T06:35:01.646Z,37.71
2022-12-11T06:37:28.566Z,39.30
2022-12-11T06:39:55.614Z,39.48
2022-12-11T06:42:24.636Z,37.91
2022-12-11T06:44:51.761Z,38.00
2022-12-11T06:47:18.733Z,37.82
2022-12-11T06:49:46.299Z,37.86
2022-12-11T06:52:18.173Z,38.21
2022-12-11T06:54:45.761Z,38.10
2022-12-11T06:57:12.941Z,38.43
2022-12-11T06:59:40.011Z,38.65
2022-12-11T07:02:07.453Z,37.74
2022-12-11T07:04:35.082Z,38.17
2022-12-11T07:07:02.096Z,38.32
2022-12-11T07:09:29.157Z,38.40
2022-12-11T07:11:56.026Z,38.52
2022-12-11T07:14:24.262Z,38.02
2022-12-11T07:16:51.202Z,38.61
2022-12-11T07:19:18.476Z,38.38
2022-12-11T07:21:45.628Z,38.50
2022-12-11T07:24:12.733Z,38.73
2022-12-11T07:26:39.821Z,38.69
2022-12-11T07:29:09.911Z,38.53
2022-12-11T07:31:39.825Z,38.69
2022-12-11T07:34:07.508Z,38.77
2022-12-11T07:36:34.936Z,38.96
2022-12-11T07:39:02.282Z,38.37
2022-12-11T07:41:32.001Z,38.16
2022-12-11T07:44:04.950Z,38.38
2022-12-11T07:46:33.207Z,38.30
2022-12-11T07:49:06.466Z,37.69
2022-12-11T07:51:40.883Z,37.90
2022-12-11T07:54:12.195Z,37.70
2022-12-11T07:56:43.882Z,37.99
2022-12-11T07:59:11.218Z,38.05
2022-12-11T08:01:39.172Z,38.42
2022-12-11T08:04:07.985Z,38.59
2022-12-11T08:06:36.114Z,37.94
2022-12-11T08:09:07.212Z,37.93
2022-12-11T08:11:34.989Z,37.25
2022-12-11T08:14:02.788Z,37.82
2022-12-11T08:16:35.778Z,37.99
2022-12-11T08:19:02.929Z,37.59
2022-12-11T08:21:30.205Z,37.01
2022-12-11T08:23:57.503Z,37.22
2022-12-11T08:26:25.960Z,37.63
2022-12-11T08:28:56.804Z,37.58
2022-12-11T08:31:26.631Z,37.40
2022-12-11T08:33:56.885Z,37.20
2022-12-11T08:36:24.863Z,37.55
2022-12-11T08:38:55.326Z,37.35
2022-12-11T08:41:31.602Z,37.14
2022-12-11T08:44:00.636Z,37.35
2022-12-11T08:46:29.119Z,37.36
2022-12-11T08:48:56.832Z,37.23
2022-12-11T08:51:26.272Z,37.32
2022-12-11T08:53:58.306Z,37.28
2022-12-11T08:56:29.325Z,37.47
2022-12-11T08:58:56.539Z,37.51
2022-12-11T09:01:28.040Z,37.46
2022-12-11T09:04:01.297Z,37.01
2022-12-11T09:06:32.859Z,36.98
2022-12-11T09:09:01.432Z,37.06
2022-12-11T09:11:30.877Z,36.64
2022-12-11T09:14:05.174Z,37.32
2022-12-11T09:16:40.958Z,37.11
2022-12-11T09:19:12.671Z,37.18
2022-12-11T09:21:43.064Z,36.80
2022-12-11T09:24:11.301Z,37.18
2022-12-11T09:26:39.459Z,37.53
2022-12-11T09:29:07.992Z,36.92
2022-12-11T09:31:40.084Z,36.57
2022-12-11T09:34:10.071Z,36.61
2022-12-11T09:36:39.031Z,36.40
2022-12-11T09:39:07.290Z,36.69
2022-12-11T09:41:41.048Z,36.83
2022-12-11T09:44:19.831Z,37.01
2022-12-11T09:46:47.119Z,36.77
2022-12-11T09:49:39.916Z,37.16
2022-12-11T09:52:23.057Z,37.01
2022-12-11T09:54:54.799Z,36.81
2022-12-11T09:57:26.005Z,36.78
2022-12-11T10:00:04.426Z,36.91
2022-12-11T10:02:36.167Z,37.35
2022-12-11T10:05:18.073Z,36.77
2022-12-11T10:07:53.725Z,37.04
2022-12-11T10:10:47.439Z,37.25
2022-12-11T10:13:24.116Z,37.42
2022-12-11T10:15:54.290Z,37.45
2022-12-11T10:18:26.505Z,36.93
2022-12-11T10:20:54.408Z,37.13
2022-12-11T10:23:44.856Z,37.71
2022-12-11T10:26:16.373Z,37.64
2022-12-11T10:28:43.553Z,37.45
2022-12-11T10:31:29.693Z,37.90
2022-12-11T10:34:01.112Z,37.15
2022-12-11T10:36:38.413Z,37.50
2022-12-11T10:39:22.864Z,37.41
2022-12-11T10:41:52.107Z,37.00
2022-12-11T10:44:23.656Z,37.34
2022-12-11T10:47:09.605Z,37.50
2022-12-11T10:49:40.613Z,37.29
2022-12-11T10:52:22.814Z,36.79
2022-12-11T10:54:58.961Z,36.82
2022-12-11T10:57:31.377Z,36.82
2022-12-11T11:00:01.675Z,36.43
2022-12-11T11:02:31.285Z,36.44
2022-12-11T11:05:00.177Z,36.49
2022-12-11T11:07:31.404Z,37.02
2022-12-11T11:10:06.561Z,36.92
2022-12-11T11:12:46.676Z,37.06
2022-12-11T11:15:14.142Z,36.59
2022-12-11T11:17:54.533Z,36.90
2022-12-11T11:20:24.637Z,37.11
2022-12-11T11:22:55.545Z,37.27
2022-12-11T11:25:38.739Z,37.66
2022-12-11T11:28:10.561Z,37.51
2022-12-11T11:30:42.733Z,37.62
2022-12-11T11:33:20.390Z,37.79
2022-12-11T11:35:58.032Z,37.63
2022-12-11T11:38:36.765Z,37.11
2022-12-11T11:41:13.116Z,36.94
2022-12-11T11:43:47.282Z,37.21
2022-12-11T11:46:24.191Z,37.18
2022-12-11T11:49:00.582Z,36.89
2022-12-11T11:51:31.139Z,36.96
2022-12-11T11:54:00.807Z,36.81
2022-12-11T11:56:31.629Z,36.79
2022-12-11T11:59:17.840Z,36.88
2022-12-11T12:01:48.127Z,36.76
2022-12-11T12:04:18.295Z,36.83
2022-12-11T12:07:05.929Z,36.60
2022-12-11T12:09:46.293Z,36.57
2022-12-11T12:12:31.033Z,36.76
2022-12-11T12:15:27.918Z,36.50
2022-12-11T12:17:58.249Z,35.84
2022-12-11T12:20:37.070Z,36.97
2022-12-11T12:23:13.081Z,36.62
2022-12-11T12:25:50.470Z,36.48
2022-12-11T12:28:27.797Z,36.28
2022-12-11T12:30:55.320Z,36.64
2022-12-11T12:33:22.784Z,36.29
2022-12-11T12:35:49.910Z,36.96
2022-12-11T12:38:19.230Z,36.81
2022-12-11T12:41:03.677Z,37.04
2022-12-11T12:43:49.776Z,36.59
2022-12-11T12:46:19.382Z,37.09
2022-12-11T12:48:49.511Z,36.71
2022-12-11T12:51:17.976Z,37.73
2022-12-11T12:54:01.415Z,37.82
2022-12-11T12:56:32.484Z,37.86
2022-12-11T12:59:02.093Z,37.64
2022-12-11T13:01:31.883Z,37.53
2022-12-11T13:04:08.627Z,38.03
2022-12-11T13:06:52.123Z,38.15
2022-12-11T13:09:24.224Z,38.38
2022-12-11T13:11:55.283Z,38.85
2022-12-11T13:14:36.914Z,38.97
2022-12-11T13:17:09.125Z,38.95
2022-12-11T13:19:42.855Z,38.64
2022-12-11T13:22:16.245Z,38.49
2022-12-11T13:24:48.209Z,38.22
2022-12-11T13:27:26.077Z,38.37
2022-12-11T13:30:05.282Z,38.57
2022-12-11T13:32:32.452Z,38.16
2022-12-11T13:35:04.342Z,38.98
2022-12-11T13:37:44.448Z,39.32
2022-12-11T13:40:23.192Z,39.28
2022-12-11T13:42:56.165Z,38.81
2022-12-11T13:45:33.043Z,38.45
2022-12-11T13:48:00.567Z,38.32
2022-12-11T13:50:35.014Z,38.72
2022-12-11T13:53:03.288Z,39.01
2022-12-11T13:55:32.265Z,38.79
2022-12-11T13:57:59.874Z,38.79
2022-12-11T14:00:35.668Z,39.14
2022-12-11T14:03:07.946Z,38.50
2022-12-11T14:05:38.150Z,38.38
2022-12-11T14:08:10.705Z,38.84
2022-12-11T14:10:40.459Z,38.75
2022-12-11T14:13:17.566Z,38.74
2022-12-11T14:15:45.788Z,39.09
2022-12-11T14:18:21.608Z,39.61
2022-12-11T14:21:02.093Z,39.67
2022-12-11T14:23:39.944Z,39.95
2022-12-11T14:26:27.884Z,40.10
2022-12-11T14:28:55.530Z,40.32
2022-12-11T14:31:30.412Z,40.21
2022-12-11T14:34:16.151Z,40.65
2022-12-11T14:36:44.337Z,40.67
2022-12-11T14:39:17.292Z,40.44
2022-12-11T14:41:53.652Z,40.21
2022-12-11T14:44:25.725Z,40.43
2022-12-11T14:46:57.561Z,40.27
2022-12-11T14:49:32.671Z,40.19
2022-12-11T14:52:03.781Z,40.05
2022-12-11T14:54:41.590Z,40.36
2022-12-11T14:57:16.929Z,41.30
2022-12-11T14:59:46.356Z,40.31
2022-12-11T15:02:45.900Z,40.53
2022-12-11T15:05:20.735Z,40.46
2022-12-11T15:07:56.151Z,40.76
2022-12-11T15:10:24.709Z,40.61
2022-12-11T15:12:54.313Z,40.83
2022-12-11T15:15:21.423Z,40.48
2022-12-11T15:17:52.668Z,40.69
2022-12-11T15:20:28.599Z,40.82
2022-12-11T15:23:00.996Z,41.16
2022-12-11T15:25:29.434Z,41.15
2022-12-11T15:27:57.938Z,41.02
2022-12-11T15:30:29.357Z,41.08
2022-12-11T15:33:19.108Z,40.97
2022-12-11T15:35:55.286Z,41.30
2022-12-11T15:38:33.700Z,41.44
2022-12-11T15:41:04.709Z,42.43
2022-12-11T15:43:35.014Z,43.16
2022-12-11T15:46:03.324Z,44.01
2022-12-11T15:48:30.466Z,43.94
2022-12-11T15:50:59.243Z,44.37
2022-12-11T15:53:26.588Z,44.32
2022-12-11T15:55:54.137Z,45.07
2022-12-11T15:58:23.361Z,45.21
2022-12-11T16:00:50.498Z,45.28
2022-12-11T16:03:19.070Z,45.29
2022-12-11T16:05:49.393Z,45.36
2022-12-11T16:08:19.920Z,44.50
2022-12-11T16:10:48.026Z,44.24
2022-12-11T16:13:15.047Z,44.40
2022-12-11T16:15:43.702Z,44.97
2022-12-11T16:18:12.528Z,45.58
2022-12-11T16:20:40.420Z,45.44
2022-12-11T16:23:10.317Z,45.77
2022-12-11T16:25:39.225Z,45.84
2022-12-11T16:28:07.281Z,45.71
2022-12-11T16:30:35.393Z,45.92
2022-12-11T16:33:08.567Z,45.56
2022-12-11T16:35:39.062Z,44.95
2022-12-11T16:38:06.007Z,44.35
2022-12-11T16:40:32.966Z,44.28
2022-12-11T16:43:00.821Z,44.32
2022-12-11T16:45:28.319Z,44.19
2022-12-11T16:47:55.362Z,44.52
2022-12-11T16:50:25.623Z,44.71
2022-12-11T16:52:52.682Z,44.55
2022-12-11T16:55:25.353Z,44.92
2022-12-11T16:57:55.505Z,44.46
2022-12-11T17:00:25.898Z,45.32
2022-12-11T17:02:55.369Z,45.63
2022-12-11T17:05:29.015Z,45.55
2022-12-11T17:07:56.144Z,46.14
2022-12-11T17:10:23.512Z,45.72
2022-12-11T17:12:50.690Z,45.13
2022-12-11T17:15:20.996Z,45.33
2022-12-11T17:17:48.194Z,44.93
2022-12-11T17:20:25.151Z,44.97
2022-12-11T17:25:52.479Z,45.02
2022-12-11T17:28:19.855Z,45.02
2022-12-11T17:30:56.909Z,45.00
2022-12-11T17:33:31.262Z,44.79
2022-12-11T17:36:02.717Z,44.57
2022-12-11T17:38:29.730Z,44.67
2022-12-11T17:40:59.463Z,45.00
2022-12-11T17:43:29.071Z,44.76
2022-12-11T17:45:56.216Z,45.04
2022-12-11T17:48:25.919Z,45.09
2022-12-11T17:50:53.398Z,44.95
2022-12-11T17:53:21.561Z,45.06
2022-12-11T17:55:50.962Z,45.02
2022-12-11T17:58:20.875Z,45.28
2022-12-11T18:00:49.017Z,44.89
2022-12-11T18:03:16.253Z,44.66
2022-12-11T18:05:49.433Z,44.53
2022-12-11T18:08:21.543Z,44.35
2022-12-11T18:10:48.825Z,44.27
2022-12-11T18:13:15.960Z,44.50
2022-12-11T18:15:43.096Z,44.48
2022-12-11T18:18:10.254Z,44.32
2022-12-11T18:20:37.645Z,44.37
2022-12-11T18:23:05.170Z,44.06
2022-12-11T18:25:32.990Z,44.63
2022-12-11T18:28:00.467Z,44.12
2022-12-11T18:30:35.018Z,44.11
2022-12-11T18:33:14.835Z,44.02
2022-12-11T18:36:04.333Z,44.19
2022-12-11T18:38:54.405Z,44.48
2022-12-11T18:42:16.519Z,44.28
2022-12-11T18:45:07.934Z,43.89
2022-12-11T18:47:50.906Z,43.74
2022-12-11T18:50:34.674Z,44.17
2022-12-11T18:53:05.505Z,43.83
2022-12-11T18:55:33.602Z,43.97
2022-12-11T18:58:17.193Z,43.71
2022-12-11T19:00:49.200Z,44.03
2022-12-11T19:03:45.286Z,43.86
2022-12-11T19:06:30.870Z,44.40
2022-12-11T19:09:05.149Z,44.10
2022-12-11T19:11:41.677Z,44.08
2022-12-11T19:14:20.147Z,44.28
2022-12-11T19:16:52.841Z,44.14
2022-12-11T19:19:31.789Z,44.47
2022-12-11T19:22:01.843Z,44.32
2022-12-11T19:24:34.543Z,44.45
2022-12-11T19:27:13.311Z,44.89
2022-12-11T19:29:43.029Z,45.27
2022-12-11T19:32:15.551Z,44.92
2022-12-11T19:34:43.528Z,44.93
2022-12-11T19:37:13.209Z,44.67
2022-12-11T19:39:43.337Z,44.59
2022-12-11T19:42:11.812Z,44.81
2022-12-11T19:44:40.938Z,45.06
2022-12-11T19:47:08.504Z,45.05
2022-12-11T19:49:35.559Z,45.52
2022-12-11T19:52:02.856Z,45.99
2022-12-11T19:54:29.944Z,46.73
2022-12-11T19:56:57.983Z,46.58
2022-12-11T19:59:25.407Z,46.77
2022-12-11T20:01:59.161Z,47.01
2022-12-11T20:04:31.504Z,47.78
2022-12-11T20:07:01.621Z,47.80
2022-12-11T20:09:33.609Z,48.37
2022-12-11T20:12:11.082Z,48.72
2022-12-11T20:14:51.237Z,48.81
2022-12-11T20:17:27.841Z,48.63
2022-12-11T20:20:00.881Z,48.74
2022-12-11T20:22:34.254Z,48.41
2022-12-11T20:25:09.555Z,48.52
2022-12-11T20:27:38.637Z,48.46
2022-12-11T20:30:06.968Z,49.74
2022-12-11T20:32:34.822Z,51.48
2022-12-11T20:35:02.090Z,52.29
2022-12-11T20:37:29.526Z,52.89
2022-12-11T20:39:56.727Z,53.00
2022-12-11T20:42:24.084Z,54.47
2022-12-11T20:44:51.052Z,54.66
2022-12-11T20:47:21.812Z,55.01
2022-12-11T20:49:49.595Z,56.19
2022-12-11T20:52:17.577Z,55.30
2022-12-11T20:54:44.563Z,54.88
2022-12-11T20:57:12.178Z,55.17
2022-12-11T20:59:39.299Z,55.18
2022-12-11T21:02:08.703Z,54.85
2022-12-11T21:04:41.222Z,55.03
2022-12-11T21:07:11.850Z,55.01
2022-12-11T21:09:39.312Z,55.32
2022-12-11T21:12:13.969Z,55.27
2022-12-11T21:14:44.295Z,54.88
2022-12-11T21:17:13.910Z,54.36
2022-12-11T21:19:40.905Z,53.90
2022-12-11T21:22:08.163Z,53.74
2022-12-11T21:24:35.542Z,53.70
2022-12-11T21:27:02.609Z,53.66
2022-12-11T21:29:29.735Z,53.61
2022-12-11T21:31:56.758Z,54.08
2022-12-11T21:34:25.749Z,53.66
2022-12-11T21:36:57.423Z,53.90
2022-12-11T21:39:25.173Z,53.90
2022-12-11T21:41:53.277Z,53.68
2022-12-11T21:47:07.331Z,53.83
2022-12-11T21:49:35.828Z,53.72
2022-12-11T21:52:03.386Z,53.82
2022-12-11T21:54:31.632Z,53.85
2022-12-11T21:56:58.852Z,53.84
2022-12-11T21:59:29.008Z,53.72
2022-12-11T22:01:56.627Z,52.78
2022-12-11T22:04:26.355Z,51.02
2022-12-11T22:06:53.661Z,49.84
2022-12-11T22:09:21.964Z,50.15
2022-12-11T22:11:50.664Z,49.94
2022-12-11T22:14:21.559Z,49.65
2022-12-11T22:16:51.786Z,49.43
2022-12-11T22:19:18.812Z,49.04
2022-12-11T22:21:46.020Z,49.09
2022-12-11T22:24:13.345Z,48.85
2022-12-11T22:26:40.859Z,49.06
2022-12-11T22:29:08.048Z,49.07
2022-12-11T22:31:35.382Z,48.13
2022-12-11T22:34:03.358Z,47.94
2022-12-11T22:36:30.406Z,47.92
2022-12-11T22:38:57.738Z,47.60
2022-12-11T22:41:34.560Z,47.07
2022-12-11T22:44:01.678Z,46.38
2022-12-11T22:46:30.699Z,45.65
2022-12-11T22:49:03.478Z,45.20
2022-12-11T22:51:30.688Z,45.01
2022-12-11T22:54:01.682Z,45.65
2022-12-11T22:56:28.699Z,45.95
2022-12-11T22:58:57.706Z,45.31
2022-12-11T23:01:25.503Z,46.25
2022-12-11T23:03:53.550Z,45.56
2022-12-11T23:06:23.585Z,45.36
2022-12-11T23:08:51.578Z,45.30
2022-12-11T23:11:20.811Z,45.01
2022-12-11T23:13:52.812Z,44.95
2022-12-11T23:16:20.309Z,45.10
2022-12-11T23:18:47.357Z,44.54
2022-12-11T23:21:14.745Z,44.87
2022-12-11T23:23:42.999Z,44.91
2022-12-11T23:26:12.616Z,44.78
2022-12-11T23:28:40.134Z,44.73
2022-12-11T23:31:07.349Z,45.26
2022-12-11T23:33:36.836Z,45.13
2022-12-11T23:36:05.152Z,44.89
2022-12-11T23:38:32.591Z,44.63
2022-12-11T23:41:04.174Z,44.46
2022-12-11T23:43:31.312Z,44.52
2022-12-11T23:45:58.378Z,44.29
2022-12-11T23:48:25.485Z,44.30
2022-12-11T23:50:52.750Z,44.12
2022-12-11T23:53:22.928Z,43.99
2022-12-11T23:55:50.315Z,43.94
2022-12-11T23:58:17.947Z,44.12
